createdAt,value
2022-12-28T00:01:52.456Z,22.95
2022-12-28T00:04:19.816Z,23.80
2022-12-28T00:06:47.781Z,23.60
2022-12-28T00:09:15.137Z,21.35
2022-12-28T00:11:42.848Z,24.30
2022-12-28T00:14:10.215Z,22.40
2022-12-28T00:16:41.966Z,17.88
2022-12-28T00:19:16.709Z,24.88
2022-12-28T00:21:46.044Z,23.00
2022-12-28T00:24:21.052Z,21.13
2022-12-28T00:26:49.401Z,19.05
2022-12-28T00:29:17.251Z,19.90
2022-12-28T00:31:46.385Z,17.92
2022-12-28T00:34:14.447Z,19.38
2022-12-28T00:37:11.092Z,20.95
2022-12-28T00:39:30.185Z,22.52
2022-12-28T00:41:59.269Z,22.35
2022-12-28T00:44:26.663Z,22.40
2022-12-28T00:46:54.293Z,21.98
2022-12-28T00:49:21.660Z,19.65
2022-12-28T00:51:49.236Z,19.55
2022-12-28T00:54:16.525Z,18.45
2022-12-28T00:56:44.109Z,22.52
2022-12-28T00:59:11.942Z,20.70
2022-12-28T01:01:39.931Z,23.63
2022-12-28T01:04:07.627Z,18.77
2022-12-28T01:06:35.275Z,19.90
2022-12-28T01:09:02.762Z,21.02
2022-12-28T01:11:31.537Z,20.40
2022-12-28T01:14:02.856Z,22.92
2022-12-28T01:16:36.934Z,21.38
2022-12-28T01:19:08.164Z,22.70
2022-12-28T01:21:37.347Z,21.83
2022-12-28T01:24:08.087Z,19.42
2022-12-28T01:26:36.861Z,22.02
2022-12-28T01:29:04.554Z,22.08
2022-12-28T01:31:32.982Z,19.63
2022-12-28T01:34:00.975Z,21.17
2022-12-28T01:36:32.980Z,20.95
2022-12-28T01:39:04.708Z,18.13
2022-12-28T01:41:38.526Z,21.10
2022-12-28T01:44:07.182Z,20.10
2022-12-28T01:46:43.099Z,19.45
2022-12-28T01:49:18.644Z,22.05
2022-12-28T01:52:13.973Z,21.50
2022-12-28T01:54:56.221Z,23.08
2022-12-28T01:57:30.245Z,18.83
2022-12-28T02:00:14.603Z,21.90
2022-12-28T02:03:04.606Z,23.17
2022-12-28T02:05:39.883Z,22.30
2022-12-28T02:08:36.081Z,20.17
2022-12-28T02:11:05.289Z,22.55
2022-12-28T02:13:34.535Z,21.90
2022-12-28T02:16:01.833Z,25.30
2022-12-28T02:18:29.492Z,24.85
2022-12-28T02:21:54.738Z,25.77
2022-12-28T02:25:12.927Z,24.70
2022-12-28T02:28:13.871Z,24.20
2022-12-28T02:30:57.176Z,28.83
2022-12-28T02:33:36.812Z,20.90
2022-12-28T02:36:18.817Z,23.42
2022-12-28T02:38:58.620Z,25.88
2022-12-28T02:41:26.921Z,23.30
2022-12-28T02:43:55.497Z,23.98
2022-12-28T02:46:52.296Z,21.33
2022-12-28T02:49:42.048Z,24.55
2022-12-28T02:52:28.215Z,22.17
2022-12-28T02:55:35.244Z,22.60
2022-12-28T02:58:27.530Z,19.77
2022-12-28T03:01:37.638Z,21.70
2022-12-28T03:04:32.902Z,20.13
2022-12-28T03:07:33.718Z,21.48
2022-12-28T03:10:16.117Z,22.67
2022-12-28T03:13:05.209Z,21.02
2022-12-28T03:15:38.796Z,16.85
2022-12-28T03:18:34.989Z,19.15
2022-12-28T03:21:29.264Z,17.10
2022-12-28T03:24:16.689Z,18.75
2022-12-28T03:27:10.484Z,21.55
2022-12-28T03:30:05.737Z,19.35
2022-12-28T03:32:34.628Z,17.45
2022-12-28T03:35:02.545Z,15.57
2022-12-28T03:37:47.339Z,18.83
2022-12-28T03:40:48.472Z,18.98
2022-12-28T03:43:41.289Z,13.07
2022-12-28T03:46:35.400Z,11.68
2022-12-28T03:49:03.797Z,13.93
2022-12-28T03:51:34.578Z,21.20
2022-12-28T03:54:02.142Z,15.80
2022-12-28T03:56:29.591Z,14.23
2022-12-28T03:58:57.754Z,15.33
2022-12-28T04:01:25.339Z,13.80
2022-12-28T04:03:52.959Z,10.93
2022-12-28T04:06:21.016Z,15.63
2022-12-28T04:08:48.812Z,12.63
2022-12-28T04:11:16.371Z,11.98
2022-12-28T04:13:44.481Z,14.60
2022-12-28T04:16:14.971Z,14.25
2022-12-28T04:18:43.260Z,14.38
2022-12-28T04:21:13.101Z,13.10
2022-12-28T04:23:41.101Z,12.95
2022-12-28T04:26:12.391Z,13.75
2022-12-28T04:28:41.176Z,13.43
2022-12-28T04:31:14.051Z,13.73
2022-12-28T04:33:42.168Z,11.38
2022-12-28T04:36:14.727Z,14.77
2022-12-28T04:38:42.840Z,14.55
2022-12-28T04:41:12.701Z,14.23
2022-12-28T04:43:40.565Z,14.90
2022-12-28T04:46:15.359Z,15.25
2022-12-28T04:48:43.759Z,12.33
2022-12-28T04:51:26.890Z,11.95
2022-12-28T04:53:56.716Z,14.18
2022-12-28T04:56:26.443Z,11.48
2022-12-28T04:59:00.187Z,9.35
2022-12-28T05:01:28.001Z,13.10
2022-12-28T05:03:59.683Z,16.63
2022-12-28T05:06:28.243Z,10.98
2022-12-28T05:08:57.653Z,11.38
2022-12-28T05:11:29.162Z,10.20
2022-12-28T05:13:57.317Z,12.70
2022-12-28T05:16:28.769Z,15.75
2022-12-28T05:18:57.865Z,14.40
2022-12-28T05:21:28.698Z,13.82
2022-12-28T05:23:57.493Z,12.17
2022-12-28T05:26:29.182Z,10.90
2022-12-28T05:28:58.805Z,11.93
2022-12-28T05:31:27.049Z,12.57
2022-12-28T05:33:55.240Z,8.90
2022-12-28T05:36:26.090Z,12.40
2022-12-28T05:38:55.784Z,12.43
2022-12-28T05:41:29.207Z,7.68
2022-12-28T05:43:59.455Z,7.28
2022-12-28T05:46:33.373Z,9.03
2022-12-28T05:49:02.160Z,6.30
2022-12-28T05:51:32.392Z,8.60
2022-12-28T05:54:04.596Z,8.85
2022-12-28T05:56:33.475Z,7.65
2022-12-28T05:59:05.697Z,10.57
2022-12-28T06:01:37.450Z,8.55
2022-12-28T06:04:14.387Z,9.80
2022-12-28T06:06:41.739Z,10.73
2022-12-28T06:09:09.326Z,10.23
2022-12-28T06:11:36.876Z,11.80
2022-12-28T06:14:06.078Z,11.07
2022-12-28T06:16:40.232Z,7.80
2022-12-28T06:19:11.951Z,8.00
2022-12-28T06:21:41.305Z,8.17
2022-12-28T06:24:11.410Z,9.18
2022-12-28T06:26:41.093Z,7.43
2022-12-28T06:29:08.974Z,8.25
2022-12-28T06:31:40.277Z,9.38
2022-12-28T06:34:10.261Z,12.07
2022-12-28T06:36:44.318Z,10.53
2022-12-28T06:39:14.620Z,10.20
2022-12-28T06:41:42.683Z,11.57
2022-12-28T06:44:13.767Z,10.85
2022-12-28T06:46:41.402Z,14.00
2022-12-28T06:49:09.371Z,10.75
2022-12-28T06:51:40.825Z,14.67
2022-12-28T06:54:10.479Z,15.63
2022-12-28T06:56:38.502Z,16.77
2022-12-28T06:59:06.982Z,11.38
2022-12-28T07:01:39.748Z,13.17
2022-12-28T07:04:10.356Z,11.15
2022-12-28T07:06:44.171Z,11.60
2022-12-28T07:09:15.341Z,13.93
2022-12-28T07:11:44.576Z,13.43
2022-12-28T07:14:12.451Z,10.52
2022-12-28T07:19:06.192Z,15.27
2022-12-28T07:21:37.666Z,15.02
2022-12-28T07:24:06.733Z,12.43
2022-12-28T07:26:36.907Z,17.37
2022-12-28T07:29:07.229Z,17.17
2022-12-28T07:31:45.348Z,14.90
2022-12-28T07:34:16.583Z,11.53
2022-12-28T07:36:44.054Z,11.23
2022-12-28T07:39:11.815Z,18.37
2022-12-28T07:41:39.306Z,16.77
2022-12-28T07:44:07.018Z,14.57
2022-12-28T07:46:37.446Z,13.07
2022-12-28T07:49:06.253Z,14.67
2022-12-28T07:51:37.449Z,14.53
2022-12-28T07:54:06.107Z,14.33
2022-12-28T07:59:05.013Z,16.73
2022-12-28T08:01:35.560Z,15.65
2022-12-28T08:04:12.124Z,15.85
2022-12-28T08:06:42.314Z,18.10
2022-12-28T08:09:13.355Z,14.93
2022-12-28T08:11:45.910Z,14.50
2022-12-28T08:14:13.738Z,13.38
2022-12-28T08:16:44.135Z,15.93
2022-12-28T08:19:13.712Z,15.60
2022-12-28T08:21:45.667Z,14.43
2022-12-28T08:24:19.832Z,14.77
2022-12-28T08:26:49.183Z,16.23
2022-12-28T08:29:21.336Z,17.13
2022-12-28T08:31:49.960Z,13.32
2022-12-28T08:34:26.523Z,15.40
2022-12-28T08:36:56.937Z,14.95
2022-12-28T08:39:24.598Z,16.55
2022-12-28T08:41:51.859Z,14.82
2022-12-28T08:44:19.563Z,17.60
2022-12-28T08:46:47.231Z,16.58
2022-12-28T08:49:15.059Z,17.92
2022-12-28T08:51:42.690Z,18.35
2022-12-28T08:54:14.069Z,19.85
2022-12-28T08:56:44.280Z,17.30
2022-12-28T08:59:18.798Z,16.27
2022-12-28T09:01:47.185Z,14.73
2022-12-28T09:04:22.825Z,18.73
2022-12-28T09:06:50.728Z,12.68
2022-12-28T09:09:19.972Z,14.45
2022-12-28T09:11:48.722Z,13.75
2022-12-28T09:14:23.203Z,13.13
2022-12-28T09:16:55.220Z,14.55
2022-12-28T09:19:23.257Z,12.70
2022-12-28T09:21:53.436Z,11.63
2022-12-28T09:24:22.764Z,13.38
2022-12-28T09:26:52.922Z,13.52
2022-12-28T09:29:21.024Z,15.98
2022-12-28T09:31:48.304Z,14.32
2022-12-28T09:37:03.898Z,13.27
2022-12-28T09:39:31.883Z,13.93
2022-12-28T09:42:17.694Z,14.25
2022-12-28T09:45:08.905Z,14.55
2022-12-28T09:47:52.028Z,14.85
2022-12-28T09:50:19.772Z,14.25
2022-12-28T09:53:06.031Z,14.27
2022-12-28T09:55:38.212Z,17.50
2022-12-28T09:58:14.392Z,16.63
2022-12-28T10:00:59.553Z,13.23
2022-12-28T10:03:41.038Z,17.75
2022-12-28T10:06:21.033Z,14.90
2022-12-28T10:09:01.369Z,16.65
2022-12-28T10:11:39.286Z,14.45
2022-12-28T10:14:27.834Z,12.70
2022-12-28T10:16:55.570Z,12.98
2022-12-28T10:19:27.909Z,13.82
2022-12-28T10:22:08.722Z,12.82
2022-12-28T10:24:37.340Z,15.80
2022-12-28T10:27:12.704Z,13.88
2022-12-28T10:29:44.687Z,13.50
2022-12-28T10:32:12.865Z,15.43
2022-12-28T10:34:59.225Z,17.20
2022-12-28T10:37:36.270Z,17.27
2022-12-28T10:40:25.852Z,18.80
2022-12-28T10:42:56.454Z,22.33
2022-12-28T10:45:34.193Z,19.67
2022-12-28T10:48:14.958Z,17.55
2022-12-28T10:50:58.335Z,13.63
2022-12-28T10:53:33.740Z,10.00
2022-12-28T10:56:17.504Z,11.55
2022-12-28T10:58:48.662Z,14.02
2022-12-28T11:01:19.551Z,13.20
2022-12-28T11:03:56.202Z,10.27
2022-12-28T11:06:50.821Z,10.70
2022-12-28T11:09:29.974Z,7.68
2022-12-28T11:12:18.823Z,11.30
2022-12-28T11:14:46.411Z,11.23
2022-12-28T11:17:19.718Z,11.27
2022-12-28T11:19:52.219Z,10.35
2022-12-28T11:22:29.997Z,12.10
2022-12-28T11:25:01.856Z,15.52
2022-12-28T11:27:29.395Z,12.82
2022-12-28T11:29:57.996Z,11.50
2022-12-28T11:32:42.823Z,7.15
2022-12-28T11:35:23.269Z,8.13
2022-12-28T11:38:03.655Z,9.07
2022-12-28T11:40:50.759Z,11.05
2022-12-28T11:43:29.885Z,11.73
2022-12-28T11:46:03.305Z,8.88
2022-12-28T11:48:42.545Z,8.48
2022-12-28T11:51:25.875Z,7.38
2022-12-28T11:54:23.845Z,8.95
2022-12-28T11:56:51.326Z,9.85
2022-12-28T11:59:34.794Z,9.00
2022-12-28T12:02:06.313Z,8.95
2022-12-28T12:04:41.256Z,7.35
2022-12-28T12:07:19.855Z,9.20
2022-12-28T12:10:09.758Z,9.82
2022-12-28T12:12:48.061Z,6.70
2022-12-28T12:15:40.290Z,11.13
2022-12-28T12:18:19.615Z,10.27
2022-12-28T12:21:13.546Z,7.35
2022-12-28T12:23:52.196Z,11.25
2022-12-28T12:26:45.159Z,7.90
2022-12-28T12:29:40.325Z,6.57
2022-12-28T12:32:44.709Z,7.25
2022-12-28T12:35:20.959Z,6.97
2022-12-28T12:38:40.940Z,7.63
2022-12-28T12:41:17.598Z,7.25
2022-12-28T12:44:15.965Z,9.98
2022-12-28T12:47:07.628Z,8.75
2022-12-28T12:50:00.970Z,7.43
2022-12-28T12:52:42.369Z,8.32
2022-12-28T12:55:46.363Z,7.03
2022-12-28T12:58:28.083Z,7.38
2022-12-28T13:01:39.582Z,9.13
2022-12-28T13:04:18.310Z,8.00
2022-12-28T13:06:46.022Z,7.60
2022-12-28T13:09:19.933Z,8.90
2022-12-28T13:11:47.651Z,7.45
2022-12-28T13:14:22.144Z,8.48
2022-12-28T13:16:55.700Z,8.50
2022-12-28T13:19:26.897Z,8.70
2022-12-28T13:21:55.217Z,6.38
2022-12-28T13:24:29.825Z,7.03
2022-12-28T13:27:00.168Z,6.85
2022-12-28T13:29:35.999Z,7.68
2022-12-28T13:32:03.432Z,9.30
2022-12-28T13:34:36.148Z,19.75
2022-12-28T13:37:21.343Z,15.43
2022-12-28T13:39:49.763Z,10.02
2022-12-28T13:42:39.523Z,9.43
2022-12-28T13:45:15.347Z,9.98
2022-12-28T13:47:50.193Z,8.40
2022-12-28T13:50:20.505Z,11.25
2022-12-28T13:53:08.195Z,10.02
2022-12-28T13:55:51.095Z,11.07
2022-12-28T13:58:29.832Z,8.07
2022-12-28T14:01:02.216Z,11.13
2022-12-28T14:03:37.515Z,9.20
2022-12-28T14:06:10.551Z,9.57
2022-12-28T14:08:40.208Z,8.32
2022-12-28T14:11:09.337Z,9.95
2022-12-28T14:13:40.182Z,8.15
2022-12-28T14:16:09.921Z,9.27
2022-12-28T14:18:38.747Z,9.70
2022-12-28T14:21:07.297Z,9.48
2022-12-28T14:23:38.556Z,10.10
2022-12-28T14:26:20.671Z,12.25
2022-12-28T14:28:55.406Z,14.40
2022-12-28T14:31:31.060Z,13.55
2022-12-28T14:34:05.204Z,17.48
2022-12-28T14:36:49.032Z,15.70
2022-12-28T14:39:40.492Z,14.75
2022-12-28T14:42:23.942Z,14.38
2022-12-28T14:44:56.219Z,15.00
2022-12-28T14:47:45.131Z,14.95
2022-12-28T14:50:30.018Z,17.05
2022-12-28T14:53:27.601Z,15.05
2022-12-28T14:56:18.463Z,16.33
2022-12-28T14:59:00.913Z,17.40
2022-12-28T15:01:47.153Z,22.52
2022-12-28T15:04:41.282Z,20.95
2022-12-28T15:07:12.041Z,23.35
2022-12-28T15:09:39.729Z,22.17
2022-12-28T15:12:15.043Z,20.80
2022-12-28T15:14:43.639Z,22.27
2022-12-28T15:17:11.187Z,17.95
2022-12-28T15:19:39.317Z,18.25
2022-12-28T15:22:06.637Z,20.45
2022-12-28T15:24:35.539Z,23.42
2022-12-28T15:27:04.974Z,22.80
2022-12-28T15:30:03.718Z,23.92
2022-12-28T15:32:20.098Z,22.60
2022-12-28T15:34:49.129Z,26.00
2022-12-28T15:37:16.534Z,21.67
2022-12-28T15:39:44.193Z,24.73
2022-12-28T15:42:11.543Z,29.48
2022-12-28T15:44:39.969Z,28.48
2022-12-28T15:47:07.327Z,28.73
2022-12-28T15:49:34.985Z,22.92
2022-12-28T15:52:02.339Z,24.80
2022-12-28T15:54:29.964Z,24.90
2022-12-28T15:56:57.990Z,21.55
2022-12-28T15:59:26.723Z,23.77
2022-12-28T16:01:54.415Z,27.58
2022-12-28T16:04:22.238Z,21.85
2022-12-28T16:06:49.612Z,24.48
2022-12-28T16:09:17.221Z,27.42
2022-12-28T16:11:46.597Z,24.15
2022-12-28T16:14:17.826Z,34.28
2022-12-28T16:16:46.062Z,35.20
2022-12-28T16:19:15.894Z,37.67
2022-12-28T16:21:44.252Z,29.75
2022-12-28T16:24:12.230Z,26.33
2022-12-28T16:26:39.684Z,23.10
2022-12-28T16:29:07.393Z,26.15
2022-12-28T16:31:38.108Z,23.13
2022-12-28T16:34:16.011Z,20.40
2022-12-28T16:36:46.494Z,20.83
2022-12-28T16:39:17.445Z,19.75
2022-12-28T16:41:44.887Z,22.30
2022-12-28T16:44:17.676Z,24.17
2022-12-28T16:46:45.328Z,21.55
2022-12-28T16:49:13.567Z,20.73
2022-12-28T16:51:45.452Z,19.33
2022-12-28T16:54:23.477Z,19.55
2022-12-28T16:56:52.274Z,18.90
2022-12-28T16:59:27.197Z,20.20
2022-12-28T17:01:56.902Z,19.00
2022-12-28T17:04:24.976Z,20.20
2022-12-28T17:06:53.425Z,18.15
2022-12-28T17:09:21.343Z,19.73
2022-12-28T17:11:50.417Z,21.23
2022-12-28T17:14:36.239Z,21.70
2022-12-28T17:17:06.604Z,19.48
2022-12-28T17:19:34.767Z,24.52
2022-12-28T17:22:02.649Z,21.80
2022-12-28T17:24:30.412Z,19.60
2022-12-28T17:27:01.817Z,24.92
2022-12-28T17:29:35.081Z,22.15
2022-12-28T17:32:04.073Z,20.08
2022-12-28T17:34:32.210Z,23.70
2022-12-28T17:36:59.715Z,22.95
2022-12-28T17:39:27.472Z,25.70
2022-12-28T17:41:54.827Z,21.42
2022-12-28T17:44:22.526Z,20.45
2022-12-28T17:46:50.059Z,19.15
2022-12-28T17:49:17.855Z,17.60
2022-12-28T17:51:45.299Z,18.88
2022-12-28T17:54:16.436Z,17.13
2022-12-28T17:56:44.028Z,18.50
2022-12-28T17:59:17.021Z,18.95
2022-12-28T18:01:44.581Z,22.85
2022-12-28T18:04:12.572Z,28.20
2022-12-28T18:06:40.619Z,23.08
2022-12-28T18:09:08.805Z,25.55
2022-12-28T18:11:36.299Z,25.52
2022-12-28T18:14:04.051Z,22.00
2022-12-28T18:16:31.538Z,23.08
2022-12-28T18:18:59.120Z,20.58
2022-12-28T18:21:27.070Z,18.42
2022-12-28T18:23:54.833Z,17.67
2022-12-28T18:26:28.320Z,18.10
2022-12-28T18:28:57.170Z,18.08
2022-12-28T18:31:25.467Z,22.15
2022-12-28T18:33:54.771Z,22.38
2022-12-28T18:36:22.574Z,19.77
2022-12-28T18:38:50.791Z,20.30
2022-12-28T18:41:25.495Z,22.90
2022-12-28T18:43:56.991Z,19.52
2022-12-28T18:46:24.390Z,20.70
2022-12-28T18:48:52.101Z,16.85
2022-12-28T18:51:19.902Z,20.48
2022-12-28T18:53:47.553Z,22.42
2022-12-28T18:56:20.329Z,20.70
2022-12-28T18:58:56.378Z,24.42
2022-12-28T19:04:17.179Z,20.77
2022-12-28T19:06:44.968Z,18.98
2022-12-28T19:09:14.184Z,16.25
2022-12-28T19:11:42.369Z,15.02
2022-12-28T19:14:13.373Z,15.77
2022-12-28T19:16:41.366Z,15.27
2022-12-28T19:19:09.080Z,15.25
2022-12-28T19:21:39.508Z,14.38
2022-12-28T19:24:16.774Z,15.10
2022-12-28T19:26:45.970Z,14.75
2022-12-28T19:29:16.201Z,15.93
2022-12-28T19:31:43.827Z,14.63
2022-12-28T19:34:11.514Z,12.70
2022-12-28T19:36:39.010Z,13.80
2022-12-28T19:39:07.000Z,19.52
2022-12-28T19:41:35.695Z,16.65
2022-12-28T19:44:03.496Z,17.23
2022-12-28T19:46:31.579Z,23.40
2022-12-28T19:49:02.905Z,21.63
2022-12-28T19:51:32.493Z,20.92
2022-12-28T19:54:01.904Z,18.85
2022-12-28T19:56:29.865Z,16.00
2022-12-28T19:59:05.455Z,18.60
2022-12-28T20:01:35.082Z,19.00
2022-12-28T20:04:10.539Z,16.83
2022-12-28T20:06:43.197Z,17.02
2022-12-28T20:09:13.233Z,17.77
2022-12-28T20:11:41.156Z,15.20
2022-12-28T20:14:13.696Z,16.17
2022-12-28T20:16:42.298Z,19.27
2022-12-28T20:19:12.354Z,16.98
2022-12-28T20:21:42.014Z,29.00
2022-12-28T20:24:12.881Z,29.25
2022-12-28T20:26:40.612Z,26.73
2022-12-28T20:29:08.407Z,29.13
2022-12-28T20:31:35.911Z,23.30
2022-12-28T20:34:03.697Z,20.13
2022-12-28T20:36:33.952Z,19.20
2022-12-28T20:39:02.610Z,19.45
2022-12-28T20:41:51.157Z,20.10
2022-12-28T20:44:30.444Z,17.45
2022-12-28T20:46:59.996Z,16.80
2022-12-28T20:49:29.192Z,20.25
2022-12-28T20:51:56.641Z,17.67
2022-12-28T20:54:24.853Z,19.48
2022-12-28T20:56:55.411Z,20.60
2022-12-28T20:59:25.197Z,19.88
2022-12-28T21:01:53.635Z,11.90
2022-12-28T21:04:24.032Z,13.68
2022-12-28T21:06:52.636Z,10.93
2022-12-28T21:09:20.627Z,12.02
2022-12-28T21:11:47.952Z,10.15
2022-12-28T21:14:15.576Z,10.93
2022-12-28T21:16:43.104Z,12.90
2022-12-28T21:19:11.083Z,12.57
2022-12-28T21:21:39.346Z,11.27
2022-12-28T21:24:07.303Z,13.15
2022-12-28T21:26:34.588Z,13.18
2022-12-28T21:29:02.130Z,12.00
2022-12-28T21:31:29.452Z,14.60
2022-12-28T21:33:57.150Z,12.68
2022-12-28T21:36:24.558Z,11.18
2022-12-28T21:38:52.090Z,9.98
2022-12-28T21:41:41.004Z,12.05
2022-12-28T21:44:12.532Z,10.68
2022-12-28T21:46:41.095Z,13.30
2022-12-28T21:49:09.766Z,16.00
2022-12-28T21:51:40.725Z,15.13
2022-12-28T21:54:15.363Z,13.10
2022-12-28T21:56:45.968Z,10.20
2022-12-28T21:59:13.934Z,10.57
2022-12-28T22:02:01.336Z,8.43
2022-12-28T22:04:48.728Z,10.15
2022-12-28T22:07:19.723Z,8.13
2022-12-28T22:10:06.863Z,7.75
2022-12-28T22:12:34.572Z,8.20
2022-12-28T22:15:37.847Z,8.55
2022-12-28T22:21:13.327Z,8.15
2022-12-28T22:23:40.560Z,8.30
2022-12-28T22:26:08.259Z,9.95
2022-12-28T22:28:35.854Z,8.55
2022-12-28T22:31:08.035Z,9.95
2022-12-28T22:33:35.690Z,13.00
2022-12-28T22:36:16.443Z,9.18
2022-12-28T22:38:44.059Z,7.90
2022-12-28T22:41:11.860Z,8.80
2022-12-28T22:43:39.212Z,11.35
2022-12-28T22:46:12.040Z,8.82
2022-12-28T22:48:39.732Z,8.27
2022-12-28T22:51:11.618Z,10.23
2022-12-28T22:53:39.843Z,10.40
2022-12-28T22:56:12.630Z,12.00
2022-12-28T22:58:39.971Z,10.60
2022-12-28T23:01:17.903Z,9.93
2022-12-28T23:03:52.087Z,8.55
2022-12-28T23:06:20.508Z,11.45
2022-12-28T23:08:48.325Z,10.75
2022-12-28T23:11:36.727Z,9.30
2022-12-28T23:14:38.390Z,9.50
2022-12-28T23:17:14.032Z,8.50
2022-12-28T23:20:04.792Z,10.65
2022-12-28T23:22:53.861Z,7.93
2022-12-28T23:25:43.116Z,13.90
2022-12-28T23:28:14.513Z,11.18
2022-12-28T23:30:48.033Z,10.52
2022-12-28T23:33:17.725Z,11.10
2022-12-28T23:35:45.320Z,10.23
2022-12-28T23:38:12.942Z,12.23
2022-12-28T23:40:41.721Z,10.68
2022-12-28T23:43:09.703Z,8.70
2022-12-28T23:45:37.165Z,8.73
2022-12-28T23:48:05.807Z,10.75
2022-12-28T23:50:33.324Z,10.23
2022-12-28T23:53:00.929Z,10.80
2022-12-28T23:55:28.261Z,10.55
2022-12-28T23:57:55.887Z,10.32
